Time;durP1;ratioP1;P1;durP2;ratioP2;P2;SDS_P1;SDS_P2;PMS_P1;PMS_P2;Temp;Humidity;BMP_temperature;BMP_pressure;BME280_temperature;BME280_humidity;BME280_pressure;Samples;Min_cycle;Max_cycle;Signal;HPM_P1;HPM_P2
2022/06/26 00:00:54;;;;;;;1.72;1.72;;;;;;;;;;1876124;76;27109;-48
2022/06/26 00:03:21;;;;;;;1.80;1.80;;;;;;;;;;1871342;75;26331;-50
2022/06/26 00:05:49;;;;;;;1.82;1.82;;;;;;;;;;1882751;75;26311;-49
2022/06/26 00:08:16;;;;;;;1.60;1.60;;;;;;;;;;1884325;75;26768;-49
2022/06/26 00:10:45;;;;;;;1.70;1.70;;;;;;;;;;1876052;75;27488;-52
2022/06/26 00:13:13;;;;;;;1.60;1.60;;;;;;;;;;1863695;75;26325;-47
2022/06/26 00:15:40;;;;;;;1.50;1.50;;;;;;;;;;1855014;75;26209;-55
2022/06/26 00:18:08;;;;;;;1.62;1.62;;;;;;;;;;1874531;76;26654;-53
2022/06/26 00:20:35;;;;;;;1.80;1.70;;;;;;;;;;1880807;76;26190;-63
2022/06/26 00:23:02;;;;;;;1.65;1.65;;;;;;;;;;1858979;75;26254;-49
2022/06/26 00:25:30;;;;;;;1.80;1.80;;;;;;;;;;1875638;75;26739;-51
2022/06/26 00:27:58;;;;;;;1.80;1.80;;;;;;;;;;1862689;76;26788;-53
2022/06/26 00:30:25;;;;;;;1.80;1.80;;;;;;;;;;1855052;76;26267;-53
2022/06/26 00:32:53;;;;;;;1.50;1.50;;;;;;;;;;1847074;76;26280;-54
2022/06/26 00:35:20;;;;;;;1.50;1.50;;;;;;;;;;1855769;77;26320;-51
2022/06/26 00:37:48;;;;;;;1.82;1.82;;;;;;;;;;1858588;76;26338;-54
2022/06/26 00:40:15;;;;;;;1.70;1.70;;;;;;;;;;1855718;77;26302;-57
2022/06/26 00:42:43;;;;;;;1.85;1.85;;;;;;;;;;1855226;76;26778;-53
2022/06/26 00:45:11;;;;;;;1.75;1.75;;;;;;;;;;1855816;76;26381;-51
2022/06/26 00:47:38;;;;;;;1.75;1.75;;;;;;;;;;1854212;76;26223;-51
2022/06/26 00:50:07;;;;;;;1.60;1.60;;;;;;;;;;1870480;76;26249;-52
2022/06/26 00:52:35;;;;;;;1.75;1.75;;;;;;;;;;1858184;76;27436;-55
2022/06/26 00:55:04;;;;;;;1.60;1.60;;;;;;;;;;1843141;77;26349;-47
2022/06/26 00:57:33;;;;;;;1.90;1.90;;;;;;;;;;1850937;76;28067;-50
2022/06/26 01:00:00;;;;;;;1.75;1.75;;;;;;;;;;1855700;76;26788;-51
2022/06/26 01:02:27;;;;;;;1.70;1.70;;;;;;;;;;1860823;76;26317;-51
2022/06/26 01:04:54;;;;;;;1.70;1.70;;;;;;;;;;1855760;76;26259;-51
2022/06/26 01:07:22;;;;;;;1.60;1.60;;;;;;;;;;1872246;76;26249;-48
2022/06/26 01:09:49;;;;;;;1.75;1.75;;;;;;;;;;1854376;76;26299;-50
2022/06/26 01:12:16;;;;;;;1.57;1.57;;;;;;;;;;1857305;76;26208;-50
2022/06/26 01:14:44;;;;;;;1.80;1.80;;;;;;;;;;1856438;77;26895;-50
2022/06/26 01:17:12;;;;;;;1.80;1.80;;;;;;;;;;1810552;77;26740;-52
2022/06/26 01:19:39;;;;;;;1.60;1.60;;;;;;;;;;1788950;80;26360;-51
2022/06/26 01:22:08;;;;;;;1.57;1.57;;;;;;;;;;1755734;81;26757;-57
2022/06/26 01:24:35;;;;;;;1.65;1.65;;;;;;;;;;1825172;77;26738;-54
2022/06/26 01:27:03;;;;;;;1.80;1.80;;;;;;;;;;1818180;78;26286;-50
2022/06/26 01:29:30;;;;;;;1.60;1.60;;;;;;;;;;1841520;77;26318;-51
2022/06/26 01:31:58;;;;;;;1.70;1.70;;;;;;;;;;1860919;77;26292;-61
2022/06/26 01:34:25;;;;;;;1.62;1.62;;;;;;;;;;1860751;77;26272;-50
2022/06/26 01:36:52;;;;;;;1.85;1.82;;;;;;;;;;1824522;78;26739;-51
2022/06/26 01:39:20;;;;;;;1.90;1.90;;;;;;;;;;1842568;78;26757;-49
2022/06/26 01:41:49;;;;;;;1.70;1.70;;;;;;;;;;1860141;77;26268;-49
2022/06/26 01:44:17;;;;;;;1.70;1.70;;;;;;;;;;1808787;77;26221;-50
2022/06/26 01:46:44;;;;;;;1.65;1.65;;;;;;;;;;1809831;78;26738;-50
2022/06/26 01:49:11;;;;;;;1.70;1.70;;;;;;;;;;1832827;76;26264;-48
2022/06/26 01:51:39;;;;;;;1.65;1.65;;;;;;;;;;1804019;78;26323;-52
2022/06/26 01:54:06;;;;;;;1.72;1.72;;;;;;;;;;1822818;78;26009;-48
2022/06/26 01:56:33;;;;;;;1.65;1.65;;;;;;;;;;1847423;77;26217;-50
2022/06/26 01:59:00;;;;;;;1.75;1.75;;;;;;;;;;1837556;76;26691;-51
2022/06/26 02:01:28;;;;;;;1.62;1.62;;;;;;;;;;1839123;76;26954;-56
2022/06/26 02:03:55;;;;;;;1.70;1.70;;;;;;;;;;1850602;77;26730;-49
2022/06/26 02:06:22;;;;;;;1.57;1.57;;;;;;;;;;1845523;76;26720;-60
2022/06/26 02:08:49;;;;;;;1.65;1.65;;;;;;;;;;1835354;77;26759;-57
2022/06/26 02:14:02;;;;;;;1.70;1.70;;;;;;;;;;1841052;77;26285;-48
2022/06/26 02:16:30;;;;;;;1.67;1.67;;;;;;;;;;1800817;78;26668;-53
2022/06/26 02:18:58;;;;;;;1.80;1.80;;;;;;;;;;1841237;76;26315;-56
2022/06/26 02:21:27;;;;;;;1.70;1.70;;;;;;;;;;1835605;77;26333;-65
2022/06/26 02:23:55;;;;;;;1.75;1.75;;;;;;;;;;1813306;77;26292;-48
2022/06/26 02:26:23;;;;;;;1.67;1.67;;;;;;;;;;1821118;78;26769;-53
2022/06/26 02:28:51;;;;;;;1.50;1.50;;;;;;;;;;1818543;78;26447;-48
2022/06/26 02:31:18;;;;;;;1.72;1.72;;;;;;;;;;1846293;78;26303;-55
2022/06/26 02:33:45;;;;;;;1.70;1.70;;;;;;;;;;1845990;78;26747;-51
2022/06/26 02:36:13;;;;;;;1.80;1.80;;;;;;;;;;1846123;78;26237;-48
2022/06/26 02:38:41;;;;;;;1.60;1.60;;;;;;;;;;1845925;78;26204;-53
2022/06/26 02:41:08;;;;;;;1.70;1.70;;;;;;;;;;1846084;78;26727;-57
2022/06/26 02:43:36;;;;;;;1.67;1.67;;;;;;;;;;1832067;78;26311;-50
2022/06/26 02:46:03;;;;;;;1.60;1.60;;;;;;;;;;1844054;78;26268;-56
2022/06/26 02:48:31;;;;;;;1.70;1.70;;;;;;;;;;1844129;78;26268;-52
2022/06/26 02:50:58;;;;;;;1.60;1.60;;;;;;;;;;1840772;77;26773;-56
2022/06/26 02:53:26;;;;;;;1.65;1.65;;;;;;;;;;1854244;77;26297;-55
2022/06/26 02:55:53;;;;;;;1.80;1.80;;;;;;;;;;1839007;77;26349;-52
2022/06/26 02:58:20;;;;;;;1.60;1.60;;;;;;;;;;1852835;77;26328;-56
2022/06/26 03:00:47;;;;;;;1.67;1.67;;;;;;;;;;1851010;77;26287;-48
2022/06/26 03:03:15;;;;;;;1.60;1.60;;;;;;;;;;1849767;77;26919;-49
2022/06/26 03:05:42;;;;;;;1.60;1.60;;;;;;;;;;1854163;77;26749;-51
2022/06/26 03:08:09;;;;;;;1.57;1.57;;;;;;;;;;1849680;77;26760;-58
2022/06/26 03:10:37;;;;;;;1.57;1.57;;;;;;;;;;1854554;77;26791;-53
2022/06/26 03:13:04;;;;;;;1.72;1.72;;;;;;;;;;1853865;77;26312;-52
2022/06/26 03:15:31;;;;;;;1.50;1.50;;;;;;;;;;1851750;77;26256;-56
2022/06/26 03:18:00;;;;;;;1.80;1.80;;;;;;;;;;1833502;77;26812;-49
2022/06/26 03:20:27;;;;;;;1.52;1.52;;;;;;;;;;1847876;77;26299;-53
2022/06/26 03:22:55;;;;;;;1.62;1.62;;;;;;;;;;1854172;77;26263;-48
2022/06/26 03:25:22;;;;;;;1.60;1.60;;;;;;;;;;1850701;77;26366;-49
2022/06/26 03:27:50;;;;;;;1.90;1.80;;;;;;;;;;1834842;77;26826;-50
2022/06/26 03:30:18;;;;;;;1.70;1.70;;;;;;;;;;1853478;77;26743;-49
2022/06/26 03:32:45;;;;;;;1.50;1.50;;;;;;;;;;1821667;78;26550;-50
2022/06/26 03:35:13;;;;;;;1.70;1.70;;;;;;;;;;1827324;77;26259;-52
2022/06/26 03:37:40;;;;;;;1.60;1.60;;;;;;;;;;1817337;77;26271;-53
2022/06/26 03:40:08;;;;;;;1.90;1.90;;;;;;;;;;1854302;76;26292;-55
2022/06/26 03:42:36;;;;;;;1.70;1.70;;;;;;;;;;1818411;78;26770;-49
2022/06/26 03:45:04;;;;;;;1.50;1.50;;;;;;;;;;1809684;78;26311;-55
2022/06/26 03:47:31;;;;;;;1.70;1.70;;;;;;;;;;1823331;77;26314;-51
2022/06/26 03:49:58;;;;;;;1.50;1.50;;;;;;;;;;1823696;78;26299;-60
2022/06/26 03:52:26;;;;;;;1.55;1.55;;;;;;;;;;1847169;76;26672;-50
2022/06/26 03:54:53;;;;;;;1.60;1.60;;;;;;;;;;1849094;77;26279;-55
2022/06/26 03:57:21;;;;;;;1.50;1.50;;;;;;;;;;1825672;77;26254;-51
2022/06/26 03:59:48;;;;;;;1.72;1.70;;;;;;;;;;1819288;78;26298;-50
2022/06/26 04:02:16;;;;;;;1.72;1.72;;;;;;;;;;1814852;79;26333;-50
2022/06/26 04:04:43;;;;;;;1.75;1.75;;;;;;;;;;1851027;77;26385;-58
2022/06/26 04:07:12;;;;;;;1.50;1.50;;;;;;;;;;1845085;77;26255;-52
2022/06/26 04:09:39;;;;;;;1.72;1.72;;;;;;;;;;1854226;77;26376;-51
2022/06/26 04:12:07;;;;;;;1.52;1.52;;;;;;;;;;1853801;77;26288;-52
2022/06/26 04:14:34;;;;;;;1.57;1.57;;;;;;;;;;1845916;77;26264;-55
2022/06/26 04:17:01;;;;;;;1.60;1.60;;;;;;;;;;1842589;77;26538;-51
2022/06/26 04:19:29;;;;;;;1.57;1.57;;;;;;;;;;1846983;77;26283;-52
2022/06/26 04:21:56;;;;;;;1.62;1.62;;;;;;;;;;1854345;77;26687;-48
2022/06/26 04:24:23;;;;;;;1.60;1.60;;;;;;;;;;1853827;77;26287;-53
2022/06/26 04:26:51;;;;;;;1.60;1.60;;;;;;;;;;1853320;77;26810;-52
2022/06/26 04:29:18;;;;;;;1.42;1.42;;;;;;;;;;1849047;77;26774;-55
2022/06/26 04:31:46;;;;;;;1.70;1.70;;;;;;;;;;1855323;77;26201;-54
2022/06/26 04:34:13;;;;;;;1.70;1.70;;;;;;;;;;1831011;77;26707;-51
2022/06/26 04:36:41;;;;;;;1.65;1.65;;;;;;;;;;1811572;77;26270;-50
2022/06/26 04:39:08;;;;;;;1.70;1.70;;;;;;;;;;1847037;76;26213;-49
2022/06/26 04:41:35;;;;;;;1.87;1.87;;;;;;;;;;1834616;78;26335;-49
2022/06/26 04:44:04;;;;;;;1.60;1.60;;;;;;;;;;1799183;79;26274;-48
2022/06/26 04:46:31;;;;;;;1.50;1.50;;;;;;;;;;1814907;78;26291;-53
2022/06/26 04:48:58;;;;;;;1.80;1.80;;;;;;;;;;1821833;77;26378;-57
2022/06/26 04:51:26;;;;;;;1.60;1.60;;;;;;;;;;1840092;77;26857;-54
2022/06/26 04:53:53;;;;;;;1.60;1.60;;;;;;;;;;1845803;77;26315;-51
2022/06/26 04:56:20;;;;;;;1.90;1.90;;;;;;;;;;1806001;78;26292;-48
2022/06/26 04:58:47;;;;;;;1.65;1.65;;;;;;;;;;1823475;77;26341;-50
2022/06/26 05:01:15;;;;;;;1.70;1.70;;;;;;;;;;1827010;78;26280;-53
2022/06/26 05:03:42;;;;;;;1.65;1.65;;;;;;;;;;1857354;77;26656;-48
2022/06/26 05:06:10;;;;;;;1.60;1.60;;;;;;;;;;1855374;77;26652;-50
2022/06/26 05:08:37;;;;;;;1.60;1.60;;;;;;;;;;1849331;77;26299;-54
2022/06/26 05:11:05;;;;;;;1.70;1.70;;;;;;;;;;1857256;77;26335;-56
2022/06/26 05:13:33;;;;;;;1.70;1.70;;;;;;;;;;1854720;77;26284;-50
2022/06/26 05:16:00;;;;;;;1.67;1.67;;;;;;;;;;1854731;77;26397;-49
2022/06/26 05:18:28;;;;;;;1.62;1.62;;;;;;;;;;1857447;77;26729;-51
2022/06/26 05:20:55;;;;;;;1.60;1.60;;;;;;;;;;1855183;77;26349;-53
2022/06/26 05:23:24;;;;;;;1.70;1.70;;;;;;;;;;1834389;77;26260;-50
2022/06/26 05:25:52;;;;;;;1.70;1.70;;;;;;;;;;1846952;77;26287;-50
2022/06/26 05:28:19;;;;;;;1.55;1.55;;;;;;;;;;1846661;77;26578;-47
2022/06/26 05:30:46;;;;;;;1.80;1.80;;;;;;;;;;1845590;77;26316;-50
2022/06/26 05:33:14;;;;;;;1.62;1.62;;;;;;;;;;1850342;77;26712;-51
2022/06/26 05:35:41;;;;;;;1.90;1.90;;;;;;;;;;1853646;77;26621;-52
2022/06/26 05:38:08;;;;;;;1.60;1.60;;;;;;;;;;1851034;77;26336;-48
2022/06/26 05:40:35;;;;;;;1.60;1.60;;;;;;;;;;1849009;77;26273;-50
2022/06/26 05:43:03;;;;;;;1.62;1.62;;;;;;;;;;1851033;77;26341;-48
2022/06/26 05:45:30;;;;;;;1.70;1.70;;;;;;;;;;1816316;77;26272;-61
2022/06/26 05:47:57;;;;;;;1.80;1.80;;;;;;;;;;1878160;76;26316;-53
2022/06/26 05:50:25;;;;;;;1.90;1.90;;;;;;;;;;1881150;75;26241;-50
2022/06/26 05:52:52;;;;;;;1.60;1.60;;;;;;;;;;1880892;76;26772;-49
2022/06/26 05:55:19;;;;;;;1.80;1.80;;;;;;;;;;1863219;75;26347;-50
2022/06/26 05:57:47;;;;;;;1.80;1.80;;;;;;;;;;1878051;75;26365;-49
2022/06/26 06:00:14;;;;;;;1.90;1.90;;;;;;;;;;1870109;75;26297;-49
2022/06/26 06:02:41;;;;;;;1.57;1.57;;;;;;;;;;1889490;75;26264;-53
2022/06/26 06:05:09;;;;;;;1.57;1.57;;;;;;;;;;1883858;75;26253;-48
2022/06/26 06:07:37;;;;;;;1.65;1.65;;;;;;;;;;1860863;75;26674;-52
2022/06/26 06:10:06;;;;;;;1.70;1.70;;;;;;;;;;1886087;75;26734;-52
2022/06/26 06:12:33;;;;;;;1.70;1.70;;;;;;;;;;1885774;75;26241;-48
2022/06/26 06:15:01;;;;;;;1.80;1.80;;;;;;;;;;1880809;75;26286;-52
2022/06/26 06:17:44;;;;;;;1.60;1.60;;;;;;;;;;1871343;75;26262;-52
2022/06/26 06:20:09;;;;;;;1.72;1.72;;;;;;;;;;1875041;75;26285;-48
2022/06/26 06:22:36;;;;;;;2.00;2.00;;;;;;;;;;1883620;75;26304;-51
2022/06/26 06:25:04;;;;;;;1.70;1.70;;;;;;;;;;1878933;75;26278;-61
2022/06/26 06:27:31;;;;;;;1.85;1.85;;;;;;;;;;1881329;75;26295;-51
2022/06/26 06:29:59;;;;;;;1.87;1.87;;;;;;;;;;1880682;75;26752;-51
2022/06/26 06:32:26;;;;;;;2.00;2.00;;;;;;;;;;1881336;75;26230;-50
2022/06/26 06:34:53;;;;;;;1.80;1.80;;;;;;;;;;1878463;75;26241;-49
2022/06/26 06:37:20;;;;;;;1.87;1.87;;;;;;;;;;1874269;75;26312;-49
2022/06/26 06:39:48;;;;;;;1.82;1.82;;;;;;;;;;1881052;75;26230;-53
2022/06/26 06:42:15;;;;;;;1.72;1.72;;;;;;;;;;1902069;75;26175;-53
2022/06/26 06:44:42;;;;;;;1.80;1.80;;;;;;;;;;1882259;75;26199;-50
2022/06/26 06:47:12;;;;;;;1.85;1.85;;;;;;;;;;1876784;76;26269;-48
2022/06/26 06:49:39;;;;;;;1.70;1.70;;;;;;;;;;1891740;75;26334;-58
2022/06/26 06:52:07;;;;;;;1.87;1.87;;;;;;;;;;1881046;75;26315;-54
2022/06/26 06:54:35;;;;;;;1.70;1.70;;;;;;;;;;1880518;76;26254;-49
2022/06/26 06:57:02;;;;;;;1.90;1.90;;;;;;;;;;1881099;75;26246;-51
2022/06/26 06:59:29;;;;;;;1.95;1.87;;;;;;;;;;1873984;75;26277;-68
2022/06/26 07:01:57;;;;;;;1.82;1.82;;;;;;;;;;1883100;75;26327;-49
2022/06/26 07:04:24;;;;;;;1.80;1.80;;;;;;;;;;1880806;76;26247;-53
2022/06/26 07:06:51;;;;;;;1.80;1.80;;;;;;;;;;1885745;75;26315;-48
2022/06/26 07:09:19;;;;;;;1.75;1.75;;;;;;;;;;1877818;75;26303;-51
2022/06/26 07:11:46;;;;;;;1.80;1.80;;;;;;;;;;1892800;75;26790;-50
2022/06/26 07:14:13;;;;;;;1.85;1.85;;;;;;;;;;1879459;76;26740;-55
2022/06/26 07:16:40;;;;;;;1.80;1.80;;;;;;;;;;1881862;75;26722;-48
2022/06/26 07:19:08;;;;;;;1.77;1.62;;;;;;;;;;1872623;76;26200;-50
2022/06/26 07:21:35;;;;;;;1.70;1.70;;;;;;;;;;1880883;76;26325;-48
2022/06/26 07:24:02;;;;;;;1.70;1.70;;;;;;;;;;1852309;75;26285;-50
2022/06/26 07:26:29;;;;;;;2.00;2.00;;;;;;;;;;1850558;75;26289;-58
2022/06/26 07:28:57;;;;;;;1.77;1.77;;;;;;;;;;1904507;75;26288;-56
2022/06/26 07:31:24;;;;;;;2.12;2.02;;;;;;;;;;1881263;75;26275;-53
2022/06/26 07:36:37;;;;;;;1.72;1.72;;;;;;;;;;1869337;75;26280;-56
2022/06/26 07:39:04;;;;;;;1.80;1.80;;;;;;;;;;1879726;75;27354;-49
2022/06/26 07:41:32;;;;;;;1.80;1.80;;;;;;;;;;1880815;76;26257;-49
2022/06/26 07:43:59;;;;;;;1.92;1.92;;;;;;;;;;1872898;75;26253;-51
2022/06/26 07:46:27;;;;;;;1.80;1.80;;;;;;;;;;1862886;76;26208;-52
2022/06/26 07:48:54;;;;;;;1.82;1.82;;;;;;;;;;1876971;75;26705;-58
2022/06/26 07:51:21;;;;;;;1.92;1.92;;;;;;;;;;1881215;75;26339;-56
2022/06/26 07:53:49;;;;;;;1.80;1.80;;;;;;;;;;1859497;75;26327;-53
2022/06/26 07:56:16;;;;;;;1.90;1.90;;;;;;;;;;1860724;74;26709;-54
2022/06/26 07:58:44;;;;;;;1.80;1.80;;;;;;;;;;1870697;76;26309;-55
2022/06/26 08:01:11;;;;;;;1.87;1.87;;;;;;;;;;1884302;76;26350;-48
2022/06/26 08:03:39;;;;;;;1.80;1.80;;;;;;;;;;1904435;75;26713;-51
2022/06/26 08:06:06;;;;;;;1.90;1.90;;;;;;;;;;1877273;74;26330;-54
2022/06/26 08:08:33;;;;;;;1.90;1.90;;;;;;;;;;1881223;76;26238;-55
2022/06/26 08:11:01;;;;;;;2.20;2.10;;;;;;;;;;1875313;76;26331;-50
2022/06/26 08:13:28;;;;;;;1.90;1.90;;;;;;;;;;1859518;76;26191;-53
2022/06/26 08:15:55;;;;;;;2.00;2.00;;;;;;;;;;1880678;75;26282;-49
2022/06/26 08:18:23;;;;;;;1.90;1.90;;;;;;;;;;1869848;76;26735;-50
2022/06/26 08:20:50;;;;;;;1.75;1.75;;;;;;;;;;1880993;76;26277;-51
2022/06/26 08:23:17;;;;;;;1.80;1.80;;;;;;;;;;1878648;76;26249;-55
2022/06/26 08:25:45;;;;;;;1.90;1.90;;;;;;;;;;1870988;75;26690;-50
2022/06/26 08:28:13;;;;;;;1.98;1.98;;;;;;;;;;1865354;76;26844;-54
2022/06/26 08:30:40;;;;;;;1.70;1.70;;;;;;;;;;1880345;75;26252;-51
2022/06/26 08:33:07;;;;;;;1.82;1.82;;;;;;;;;;1881110;76;26648;-52
2022/06/26 08:35:35;;;;;;;1.90;1.90;;;;;;;;;;1858808;75;26630;-52
2022/06/26 08:38:02;;;;;;;1.70;1.70;;;;;;;;;;1878436;75;26239;-58
2022/06/26 08:40:29;;;;;;;2.08;2.00;;;;;;;;;;1866427;75;26321;-52
2022/06/26 08:42:58;;;;;;;1.98;1.95;;;;;;;;;;1898240;75;26243;-52
2022/06/26 08:45:25;;;;;;;1.92;1.92;;;;;;;;;;1869537;75;26362;-51
2022/06/26 08:47:53;;;;;;;1.90;1.90;;;;;;;;;;1880419;76;26616;-48
2022/06/26 08:50:22;;;;;;;1.90;1.90;;;;;;;;;;1881189;75;26250;-52
2022/06/26 08:52:54;;;;;;;1.80;1.80;;;;;;;;;;1902982;75;26239;-49
2022/06/26 08:55:21;;;;;;;1.90;1.90;;;;;;;;;;1880595;76;26261;-52
2022/06/26 08:57:49;;;;;;;1.70;1.70;;;;;;;;;;1876206;75;26199;-50
2022/06/26 09:00:17;;;;;;;2.00;1.90;;;;;;;;;;1876607;76;26196;-55
2022/06/26 09:02:44;;;;;;;1.92;1.92;;;;;;;;;;1874606;75;26201;-51
2022/06/26 09:05:11;;;;;;;1.80;1.80;;;;;;;;;;1895845;75;26254;-51
2022/06/26 09:07:52;;;;;;;2.05;2.00;;;;;;;;;;1891062;75;26731;-51
2022/06/26 09:10:20;;;;;;;1.98;1.98;;;;;;;;;;1882673;76;26803;-51
2022/06/26 09:12:52;;;;;;;2.08;1.98;;;;;;;;;;1871873;75;26288;-49
2022/06/26 09:15:20;;;;;;;1.85;1.85;;;;;;;;;;1862123;75;26210;-49
2022/06/26 09:17:58;;;;;;;1.90;1.90;;;;;;;;;;1886415;75;26720;-49
2022/06/26 09:20:25;;;;;;;2.00;2.00;;;;;;;;;;1866210;75;26772;-54
2022/06/26 09:22:53;;;;;;;1.90;1.90;;;;;;;;;;1900676;75;26472;-52
2022/06/26 09:25:21;;;;;;;2.00;2.00;;;;;;;;;;1876520;75;26274;-56
2022/06/26 09:27:48;;;;;;;1.90;1.90;;;;;;;;;;1863177;75;26322;-51
2022/06/26 09:30:16;;;;;;;1.80;1.80;;;;;;;;;;1862356;75;26662;-50
2022/06/26 09:32:43;;;;;;;1.70;1.70;;;;;;;;;;1868629;74;26804;-48
2022/06/26 09:35:10;;;;;;;1.70;1.70;;;;;;;;;;1878306;76;26277;-70
2022/06/26 09:37:39;;;;;;;1.90;1.90;;;;;;;;;;1888011;74;26344;-55
2022/06/26 09:40:07;;;;;;;1.87;1.87;;;;;;;;;;1884036;75;26245;-59
2022/06/26 09:42:35;;;;;;;1.85;1.85;;;;;;;;;;1888952;76;26242;-56
2022/06/26 09:45:02;;;;;;;1.90;1.90;;;;;;;;;;1870300;74;26957;-55
2022/06/26 09:47:31;;;;;;;1.80;1.80;;;;;;;;;;1890017;74;26247;-56
2022/06/26 09:50:00;;;;;;;1.90;1.90;;;;;;;;;;1886643;75;26260;-51
2022/06/26 09:52:32;;;;;;;1.98;1.98;;;;;;;;;;1897033;74;26286;-49
2022/06/26 09:55:00;;;;;;;1.70;1.70;;;;;;;;;;1878089;74;26330;-52
2022/06/26 09:57:28;;;;;;;1.90;1.90;;;;;;;;;;1890247;74;26865;-48
2022/06/26 09:59:56;;;;;;;2.15;2.05;;;;;;;;;;1890139;76;26245;-56
2022/06/26 10:07:59;;;;;;;1.95;1.90;;;;;;;;;;1875075;74;26304;-54
2022/06/26 10:10:26;;;;;;;2.00;1.90;;;;;;;;;;1889940;76;26275;-52
2022/06/26 10:12:58;;;;;;;2.00;2.00;;;;;;;;;;1887099;74;26250;-48
2022/06/26 10:15:26;;;;;;;1.82;1.82;;;;;;;;;;1874590;76;26314;-54
2022/06/26 10:18:07;;;;;;;1.80;1.80;;;;;;;;;;1882783;74;26456;-55
2022/06/26 10:20:35;;;;;;;1.90;1.90;;;;;;;;;;1874563;76;26331;-56
2022/06/26 10:23:02;;;;;;;1.80;1.80;;;;;;;;;;1890297;74;26637;-50
2022/06/26 10:25:31;;;;;;;2.17;2.08;;;;;;;;;;1883662;74;26260;-58
2022/06/26 10:27:59;;;;;;;1.90;1.90;;;;;;;;;;1873369;74;26889;-53
2022/06/26 10:30:28;;;;;;;2.08;1.98;;;;;;;;;;1889914;76;26938;-54
2022/06/26 10:33:09;;;;;;;1.90;1.90;;;;;;;;;;1884864;75;26262;-49
2022/06/26 10:35:40;;;;;;;2.00;1.90;;;;;;;;;;1860351;76;26697;-54
2022/06/26 10:38:21;;;;;;;1.98;1.98;;;;;;;;;;1880198;75;26755;-53
2022/06/26 10:43:40;;;;;;;1.85;1.85;;;;;;;;;;1869950;75;26281;-53
2022/06/26 10:46:09;;;;;;;1.80;1.80;;;;;;;;;;1859228;76;26296;-48
2022/06/26 10:48:36;;;;;;;2.00;2.00;;;;;;;;;;1874441;75;26309;-53
2022/06/26 10:51:03;;;;;;;1.90;1.90;;;;;;;;;;1872329;76;26332;-48
2022/06/26 10:53:32;;;;;;;1.90;1.90;;;;;;;;;;1907127;75;26809;-53
2022/06/26 10:56:01;;;;;;;2.30;2.20;;;;;;;;;;1880835;75;26701;-52
2022/06/26 10:58:30;;;;;;;1.77;1.77;;;;;;;;;;1880474;76;26699;-51
2022/06/26 11:00:58;;;;;;;1.82;1.82;;;;;;;;;;1880119;75;26359;-48
2022/06/26 11:03:26;;;;;;;1.90;1.90;;;;;;;;;;1899077;75;26313;-53
2022/06/26 11:06:00;;;;;;;1.92;1.92;;;;;;;;;;1885292;75;26240;-48
2022/06/26 11:08:34;;;;;;;2.05;2.05;;;;;;;;;;1860595;75;26300;-51
2022/06/26 11:11:00;;;;;;;2.10;2.10;;;;;;;;;;1875015;76;26557;-48
2022/06/26 11:13:27;;;;;;;2.08;2.00;;;;;;;;;;1879709;76;26328;-48
2022/06/26 11:15:55;;;;;;;1.87;1.87;;;;;;;;;;1872863;76;26267;-48
2022/06/26 11:18:22;;;;;;;2.05;2.05;;;;;;;;;;1869892;75;26272;-53
2022/06/26 11:20:51;;;;;;;1.80;1.80;;;;;;;;;;1880895;76;26243;-53
2022/06/26 11:23:19;;;;;;;2.10;2.10;;;;;;;;;;1858648;75;26211;-49
2022/06/26 11:25:48;;;;;;;1.77;1.77;;;;;;;;;;1870656;75;26269;-51
2022/06/26 11:28:16;;;;;;;1.80;1.80;;;;;;;;;;1862942;75;26761;-48
2022/06/26 11:30:45;;;;;;;1.80;1.80;;;;;;;;;;1887180;75;26652;-50
2022/06/26 11:33:13;;;;;;;1.80;1.80;;;;;;;;;;1883871;74;26232;-48
2022/06/26 11:35:40;;;;;;;1.95;1.95;;;;;;;;;;1881317;75;26301;-55
2022/06/26 11:38:16;;;;;;;2.00;2.00;;;;;;;;;;1875158;75;26659;-51
2022/06/26 11:40:44;;;;;;;2.00;2.00;;;;;;;;;;1870528;75;26701;-50
2022/06/26 11:43:12;;;;;;;1.82;1.82;;;;;;;;;;1869828;75;26362;-49
2022/06/26 11:45:43;;;;;;;1.75;1.75;;;;;;;;;;1881154;75;26198;-52
2022/06/26 11:48:17;;;;;;;1.80;1.80;;;;;;;;;;1881484;75;26777;-52
2022/06/26 11:50:40;;;;;;;1.95;1.95;;;;;;;;;;1853035;75;26264;-50
2022/06/26 11:53:08;;;;;;;1.87;1.80;;;;;;;;;;1880957;75;26794;-50
2022/06/26 11:55:36;;;;;;;1.70;1.70;;;;;;;;;;1864573;76;26814;-56
2022/06/26 11:58:04;;;;;;;1.60;1.60;;;;;;;;;;1879177;75;26710;-48
2022/06/26 12:00:31;;;;;;;1.80;1.80;;;;;;;;;;1880934;76;26814;-55
2022/06/26 12:03:00;;;;;;;2.10;2.00;;;;;;;;;;1884946;75;26319;-51
2022/06/26 12:05:27;;;;;;;1.70;1.70;;;;;;;;;;1875018;75;26279;-52
2022/06/26 12:07:55;;;;;;;1.70;1.70;;;;;;;;;;1863491;75;26299;-51
2022/06/26 12:10:33;;;;;;;2.10;2.10;;;;;;;;;;1881039;75;26760;-49
2022/06/26 12:13:01;;;;;;;1.90;1.90;;;;;;;;;;1881054;76;26319;-52
2022/06/26 12:15:29;;;;;;;2.00;2.00;;;;;;;;;;1881174;76;26786;-48
2022/06/26 12:17:59;;;;;;;2.05;2.05;;;;;;;;;;1872976;75;26675;-50
2022/06/26 12:20:27;;;;;;;1.75;1.75;;;;;;;;;;1880912;75;26692;-51
2022/06/26 12:22:56;;;;;;;1.70;1.70;;;;;;;;;;1878138;75;26736;-49
2022/06/26 12:25:31;;;;;;;1.60;1.60;;;;;;;;;;1870333;76;26276;-49
2022/06/26 12:27:58;;;;;;;1.98;1.98;;;;;;;;;;1846067;75;26803;-49
2022/06/26 12:30:27;;;;;;;1.95;1.95;;;;;;;;;;1902380;75;26235;-52
2022/06/26 12:32:56;;;;;;;2.00;2.00;;;;;;;;;;1878795;75;26279;-49
2022/06/26 12:35:24;;;;;;;1.80;1.80;;;;;;;;;;1878281;75;26238;-50
2022/06/26 12:37:51;;;;;;;1.80;1.80;;;;;;;;;;1877935;75;26738;-54
2022/06/26 12:40:18;;;;;;;1.95;1.95;;;;;;;;;;1875956;75;26683;-50
2022/06/26 12:42:45;;;;;;;2.10;2.10;;;;;;;;;;1864289;76;26803;-53
2022/06/26 12:45:13;;;;;;;1.90;1.90;;;;;;;;;;1871000;75;26274;-49
2022/06/26 12:47:40;;;;;;;2.20;2.00;;;;;;;;;;1880367;75;26271;-54
2022/06/26 12:50:08;;;;;;;2.00;2.00;;;;;;;;;;1880980;75;26327;-56
2022/06/26 12:52:36;;;;;;;2.10;2.10;;;;;;;;;;1881188;76;26709;-52
2022/06/26 12:55:05;;;;;;;2.00;2.00;;;;;;;;;;1878574;75;26307;-54
2022/06/26 12:57:32;;;;;;;2.00;2.00;;;;;;;;;;1880752;75;26292;-49
2022/06/26 12:59:59;;;;;;;2.12;2.02;;;;;;;;;;1863189;75;26333;-49
2022/06/26 13:02:26;;;;;;;1.85;1.85;;;;;;;;;;1892801;75;26238;-48
2022/06/26 13:04:54;;;;;;;1.90;1.90;;;;;;;;;;1885290;75;26229;-51
2022/06/26 13:07:21;;;;;;;2.00;2.00;;;;;;;;;;1856228;75;26751;-53
2022/06/26 13:09:48;;;;;;;1.90;1.80;;;;;;;;;;1881148;76;26743;-51
2022/06/26 13:12:16;;;;;;;1.90;1.90;;;;;;;;;;1880747;76;26235;-57
2022/06/26 13:14:44;;;;;;;2.00;2.00;;;;;;;;;;1881091;76;26189;-52
2022/06/26 13:17:12;;;;;;;2.02;2.02;;;;;;;;;;1874088;75;26332;-50
2022/06/26 13:19:39;;;;;;;2.02;2.02;;;;;;;;;;1879644;76;26253;-53
2022/06/26 13:22:07;;;;;;;1.90;1.90;;;;;;;;;;1881206;76;26805;-48
2022/06/26 13:24:35;;;;;;;1.92;1.92;;;;;;;;;;1880739;75;26323;-55
2022/06/26 13:27:02;;;;;;;1.95;1.95;;;;;;;;;;1873004;75;26316;-51
2022/06/26 13:29:30;;;;;;;2.00;2.00;;;;;;;;;;1901759;75;26844;-54
2022/06/26 13:31:57;;;;;;;2.10;2.10;;;;;;;;;;1868790;75;26261;-49
2022/06/26 13:34:25;;;;;;;1.90;1.90;;;;;;;;;;1881928;74;26292;-53
2022/06/26 13:36:52;;;;;;;2.00;2.00;;;;;;;;;;1871144;74;26682;-54
2022/06/26 13:39:20;;;;;;;2.10;2.10;;;;;;;;;;1890240;74;26327;-52
2022/06/26 13:41:47;;;;;;;2.10;2.10;;;;;;;;;;1892342;74;26814;-50
2022/06/26 13:44:15;;;;;;;2.10;2.00;;;;;;;;;;1899742;74;26328;-54
2022/06/26 13:46:42;;;;;;;2.20;2.10;;;;;;;;;;1859905;76;27304;-52
2022/06/26 13:49:09;;;;;;;2.00;2.00;;;;;;;;;;1890545;76;26289;-49
2022/06/26 13:51:38;;;;;;;2.10;2.10;;;;;;;;;;1890099;76;26242;-52
2022/06/26 13:54:06;;;;;;;2.20;2.20;;;;;;;;;;1888239;74;26346;-55
2022/06/26 13:56:34;;;;;;;2.35;2.25;;;;;;;;;;1876519;76;26238;-54
2022/06/26 13:59:01;;;;;;;2.08;2.05;;;;;;;;;;1889742;76;26319;-61
2022/06/26 14:01:29;;;;;;;2.12;2.02;;;;;;;;;;1892597;74;26308;-54
2022/06/26 14:03:56;;;;;;;2.00;2.00;;;;;;;;;;1891293;75;26865;-48
2022/06/26 14:06:24;;;;;;;2.10;2.10;;;;;;;;;;1881148;76;26231;-49
2022/06/26 14:08:52;;;;;;;2.20;2.20;;;;;;;;;;1889411;76;26226;-50
2022/06/26 14:11:19;;;;;;;2.22;2.20;;;;;;;;;;1901405;74;26689;-52
2022/06/26 14:13:47;;;;;;;2.12;2.12;;;;;;;;;;1902640;74;26264;-49
2022/06/26 14:16:14;;;;;;;2.30;2.20;;;;;;;;;;1890129;76;26254;-63
2022/06/26 14:18:41;;;;;;;2.47;2.37;;;;;;;;;;1889991;74;26760;-57
2022/06/26 14:21:09;;;;;;;2.37;2.27;;;;;;;;;;1889730;76;26568;-56
2022/06/26 14:26:22;;;;;;;2.20;2.20;;;;;;;;;;1874294;74;26280;-49
2022/06/26 14:28:49;;;;;;;2.17;2.17;;;;;;;;;;1853435;74;26300;-48
2022/06/26 14:31:16;;;;;;;2.22;2.15;;;;;;;;;;1880528;74;26645;-52
2022/06/26 14:33:45;;;;;;;2.12;2.12;;;;;;;;;;1888839;74;27166;-53
2022/06/26 14:36:13;;;;;;;2.10;2.10;;;;;;;;;;1862656;76;26734;-52
2022/06/26 14:38:40;;;;;;;2.30;2.25;;;;;;;;;;1875010;75;26749;-55
2022/06/26 14:41:08;;;;;;;2.42;2.33;;;;;;;;;;1874268;76;26247;-52
2022/06/26 14:43:35;;;;;;;2.27;2.17;;;;;;;;;;1871077;76;26745;-55
2022/06/26 14:46:03;;;;;;;2.10;2.10;;;;;;;;;;1848082;76;26268;-48
2022/06/26 14:48:30;;;;;;;2.40;2.30;;;;;;;;;;1875617;76;26697;-49
2022/06/26 14:50:57;;;;;;;2.40;2.40;;;;;;;;;;1875215;75;26738;-54
2022/06/26 14:53:25;;;;;;;2.37;2.27;;;;;;;;;;1875878;76;26789;-49
2022/06/26 14:55:54;;;;;;;2.47;2.40;;;;;;;;;;1886235;75;26284;-51
2022/06/26 14:58:27;;;;;;;2.33;2.33;;;;;;;;;;1875691;76;26343;-48
2022/06/26 15:00:55;;;;;;;2.40;2.30;;;;;;;;;;1880383;75;26641;-48
2022/06/26 15:03:23;;;;;;;2.20;2.20;;;;;;;;;;1876374;76;26258;-49